This is the latest recevied weather packets stored in our database for station/object SP3PDK-1. If no packets are shown the sender has not sent any weather packets the latest 10 day(s).
| Time | Temp. | Humidity | Pressure | Rain* | Wind** | Luminosity | Snow |
|---|---|---|---|---|---|---|---|
| 1777254857 | 7.22° C | 47% | 1024 hPa | - | - | - | - |
| 1777254254 | 7.22° C | 49% | 1024 hPa | - | - | - | - |
| 1777253654 | 7.22° C | 48% | 1023.9 hPa | - | - | - | - |
| 1777253059 | 7.22° C | 50% | 1023.9 hPa | - | - | - | - |
| 1777252458 | 7.22° C | 50% | 1024 hPa | - | - | - | - |
| 1777251853 | 7.22° C | 49% | 1024 hPa | - | - | - | - |
| 1777251259 | 7.78° C | 47% | 1024.1 hPa | - | - | - | - |
| 1777250658 | 8.33° C | 44% | 1024 hPa | - | - | - | - |
| 1777250057 | 7.78° C | 47% | 1024.1 hPa | - | - | - | - |
| 1777249454 | 7.78° C | 47% | 1024.2 hPa | - | - | - | - |
| 1777248857 | 7.78° C | 47% | 1024.2 hPa | - | - | - | - |
| 1777248255 | 7.78° C | 45% | 1024.2 hPa | - | - | - | - |
| 1777247654 | 7.78° C | 45% | 1024.2 hPa | - | - | - | - |
| 1777247054 | 8.33° C | 44% | 1024.3 hPa | - | - | - | - |
| 1777246458 | 8.33° C | 42% | 1024.2 hPa | - | - | - | - |
| 1777245858 | 8.89° C | 42% | 1024.3 hPa | - | - | - | - |
| 1777245258 | 8.89° C | 41% | 1024.3 hPa | - | - | - | - |
| 1777244654 | 9.44° C | 39% | 1024.3 hPa | - | - | - | - |
| 1777243455 | 9.44° C | 39% | 1024.3 hPa | - | - | - | - |
| 1777242855 | 10° C | 38% | 1024.3 hPa | - | - | - | - |
| 1777242254 | 9.44° C | 38% | 1024.2 hPa | - | - | - | - |
| 1777241654 | 9.44° C | 38% | 1024.3 hPa | - | - | - | - |
| 1777241058 | 9.44° C | 39% | 1024.2 hPa | - | - | - | - |
| 1777240458 | 9.44° C | 39% | 1024.2 hPa | - | - | - | - |
| 1777239859 | 9.44° C | 39% | 1024.2 hPa | - | - | - | - |
* Rain since midnight (hover to see other rain measurements)
** Current wind speed in m/s (hover to see current wind gust speed)